createdAt,value
2022-10-09T00:01:36.224Z,9.20
2022-10-09T00:04:09.989Z,5.40
2022-10-09T00:06:43.940Z,6.40
2022-10-09T00:09:18.980Z,5.40
2022-10-09T00:11:52.708Z,9.90
2022-10-09T00:14:26.508Z,6.30
2022-10-09T00:17:00.521Z,7.70
2022-10-09T00:19:34.222Z,6.30
2022-10-09T00:22:07.786Z,5.90
2022-10-09T00:24:44.971Z,7.40
2022-10-09T00:27:18.753Z,6.20
2022-10-09T00:29:52.806Z,6.00
2022-10-09T00:32:26.556Z,8.90
2022-10-09T00:35:00.224Z,6.10
2022-10-09T00:37:35.370Z,6.20
2022-10-09T00:40:11.295Z,6.30
2022-10-09T00:42:45.728Z,6.50
2022-10-09T00:45:24.490Z,8.80
2022-10-09T00:48:02.896Z,6.40
2022-10-09T00:50:46.317Z,7.70
2022-10-09T00:53:25.305Z,4.20
2022-10-09T00:56:00.410Z,6.40
2022-10-09T00:58:34.258Z,4.60
2022-10-09T01:01:08.319Z,4.80
2022-10-09T01:03:42.217Z,4.10
2022-10-09T01:06:27.955Z,5.40
2022-10-09T01:09:09.483Z,5.30
2022-10-09T01:11:56.707Z,6.30
2022-10-09T01:14:35.210Z,3.70
2022-10-09T01:17:21.693Z,8.20
2022-10-09T01:20:21.130Z,6.00
2022-10-09T01:23:19.362Z,6.60
2022-10-09T01:26:07.230Z,5.90
2022-10-09T01:28:42.877Z,5.90
2022-10-09T01:31:19.912Z,5.10
2022-10-09T01:33:54.529Z,6.10
2022-10-09T01:36:31.257Z,7.10
2022-10-09T01:39:09.153Z,5.10
2022-10-09T01:41:43.714Z,6.10
2022-10-09T01:44:26.635Z,5.80
2022-10-09T01:47:01.528Z,5.00
2022-10-09T01:49:53.511Z,5.50
2022-10-09T01:52:44.427Z,7.20
2022-10-09T01:55:41.464Z,5.90
2022-10-09T01:58:22.944Z,6.10
2022-10-09T02:01:05.656Z,8.20
2022-10-09T02:03:43.863Z,4.50
2022-10-09T02:06:20.641Z,5.00
2022-10-09T02:08:58.098Z,4.60
2022-10-09T02:11:37.041Z,8.00
2022-10-09T02:14:11.535Z,5.80
2022-10-09T02:16:49.708Z,7.20
2022-10-09T02:19:31.590Z,6.80
2022-10-09T02:22:13.528Z,6.60
2022-10-09T02:24:48.045Z,8.20
2022-10-09T02:27:24.329Z,5.50
2022-10-09T02:30:00.065Z,7.40
2022-10-09T02:32:34.326Z,4.70
2022-10-09T02:35:09.758Z,7.50
2022-10-09T02:37:43.382Z,6.90
2022-10-09T02:40:17.043Z,8.10
2022-10-09T02:42:51.219Z,7.00
2022-10-09T02:45:25.315Z,6.00
2022-10-09T02:47:59.004Z,4.80
2022-10-09T02:50:32.829Z,5.70
2022-10-09T02:53:06.632Z,6.00
2022-10-09T02:55:41.850Z,5.30
2022-10-09T02:58:16.177Z,5.00
2022-10-09T03:00:54.406Z,6.80
2022-10-09T03:03:28.358Z,6.10
2022-10-09T03:06:09.850Z,6.30
2022-10-09T03:08:46.400Z,5.20
2022-10-09T03:11:22.402Z,4.50
2022-10-09T03:13:57.302Z,5.40
2022-10-09T03:16:31.430Z,8.10
2022-10-09T03:19:05.288Z,8.00
2022-10-09T03:21:39.165Z,6.10
2022-10-09T03:24:14.040Z,7.30
2022-10-09T03:26:47.720Z,7.20
2022-10-09T03:29:21.522Z,6.70
2022-10-09T03:31:55.573Z,7.20
2022-10-09T03:34:29.092Z,12.10
2022-10-09T03:37:02.802Z,5.70
2022-10-09T03:39:36.300Z,11.50
2022-10-09T03:42:10.550Z,6.30
2022-10-09T03:44:44.459Z,5.60
2022-10-09T03:47:18.392Z,7.30
2022-10-09T03:49:52.142Z,9.10
2022-10-09T03:52:25.778Z,4.50
2022-10-09T03:54:59.780Z,6.00
2022-10-09T03:57:33.866Z,6.40
2022-10-09T04:00:10.591Z,7.40
2022-10-09T04:02:44.456Z,7.50
2022-10-09T04:05:18.973Z,7.90
2022-10-09T04:07:52.716Z,5.30
2022-10-09T04:10:26.567Z,9.40
2022-10-09T04:13:00.324Z,6.30
2022-10-09T04:15:35.311Z,6.50
2022-10-09T04:18:09.420Z,4.90
2022-10-09T04:20:49.436Z,5.60
2022-10-09T04:23:25.113Z,5.50
2022-10-09T04:26:01.506Z,7.40
2022-10-09T04:28:36.124Z,6.20
2022-10-09T04:31:10.210Z,4.90
2022-10-09T04:33:43.937Z,5.80
2022-10-09T04:36:17.521Z,4.50
2022-10-09T04:38:52.677Z,6.90
2022-10-09T04:41:26.688Z,5.90
2022-10-09T04:44:01.492Z,7.30
2022-10-09T04:46:35.134Z,7.00
2022-10-09T04:49:08.922Z,5.80
2022-10-09T04:51:42.825Z,5.80
2022-10-09T04:54:16.686Z,7.10
2022-10-09T04:56:50.472Z,4.10
2022-10-09T04:59:24.678Z,5.80
2022-10-09T05:01:58.380Z,10.00
2022-10-09T05:04:33.061Z,7.90
2022-10-09T05:07:06.990Z,5.70
2022-10-09T05:09:40.671Z,6.10
2022-10-09T05:12:14.347Z,7.30
2022-10-09T05:14:48.082Z,6.00
2022-10-09T05:17:23.448Z,5.20
2022-10-09T05:19:57.462Z,7.00
2022-10-09T05:22:31.866Z,6.60
2022-10-09T05:25:06.692Z,8.80
2022-10-09T05:27:40.365Z,7.50
2022-10-09T05:30:16.263Z,8.40
2022-10-09T05:32:50.501Z,7.40
2022-10-09T05:35:24.617Z,7.80
2022-10-09T05:37:58.206Z,9.10
2022-10-09T05:40:31.953Z,8.90
2022-10-09T05:43:07.038Z,6.20
2022-10-09T05:45:40.863Z,5.90
2022-10-09T05:48:15.159Z,8.10
2022-10-09T05:50:49.156Z,8.60
2022-10-09T05:53:23.433Z,4.80
2022-10-09T05:56:01.534Z,5.90
2022-10-09T05:58:37.233Z,7.40
2022-10-09T06:01:11.940Z,6.30
2022-10-09T06:03:49.035Z,6.90
2022-10-09T06:06:25.551Z,7.50
2022-10-09T06:09:00.276Z,6.10
2022-10-09T06:11:37.150Z,6.80
2022-10-09T06:14:13.968Z,10.20
2022-10-09T06:16:49.210Z,7.30
2022-10-09T06:19:23.630Z,7.30
2022-10-09T06:21:57.691Z,6.90
2022-10-09T06:24:31.581Z,6.40
2022-10-09T06:27:05.421Z,8.30
2022-10-09T06:29:39.259Z,5.50
2022-10-09T06:32:13.176Z,5.30
2022-10-09T06:34:46.911Z,8.80
2022-10-09T06:37:20.925Z,5.80
2022-10-09T06:39:54.974Z,6.10
2022-10-09T06:42:28.875Z,8.20
2022-10-09T06:45:04.189Z,9.20
2022-10-09T06:47:38.215Z,8.90
2022-10-09T06:50:13.401Z,7.30
2022-10-09T06:52:47.716Z,9.70
2022-10-09T06:55:26.468Z,7.50
2022-10-09T06:58:02.928Z,7.70
2022-10-09T07:00:36.984Z,7.50
2022-10-09T07:03:11.089Z,6.10
2022-10-09T07:05:45.637Z,7.10
2022-10-09T07:08:19.380Z,8.00
2022-10-09T07:10:53.577Z,6.10
2022-10-09T07:13:27.472Z,8.90
2022-10-09T07:16:04.815Z,6.60
2022-10-09T07:18:39.179Z,6.30
2022-10-09T07:21:13.429Z,5.20
2022-10-09T07:23:47.567Z,6.00
2022-10-09T07:26:25.595Z,7.90
2022-10-09T07:29:00.375Z,7.10
2022-10-09T07:31:34.749Z,8.50
2022-10-09T07:34:09.064Z,8.50
2022-10-09T07:36:43.165Z,8.00
2022-10-09T07:39:19.093Z,6.40
2022-10-09T07:41:54.325Z,7.50
2022-10-09T07:44:28.335Z,8.40
2022-10-09T07:47:02.660Z,6.80
2022-10-09T07:49:36.327Z,8.50
2022-10-09T07:52:10.316Z,6.70
2022-10-09T07:54:44.092Z,6.90
2022-10-09T07:57:17.931Z,8.50
2022-10-09T07:59:51.650Z,5.90
2022-10-09T08:02:25.335Z,8.60
2022-10-09T08:04:59.069Z,6.50
2022-10-09T08:07:35.015Z,5.60
2022-10-09T08:10:10.974Z,6.90
2022-10-09T08:12:44.876Z,5.40
2022-10-09T08:15:18.917Z,7.40
2022-10-09T08:17:55.204Z,6.00
2022-10-09T08:20:29.030Z,7.50
2022-10-09T08:23:03.070Z,7.30
2022-10-09T08:25:40.102Z,5.50
2022-10-09T08:28:14.862Z,6.50
2022-10-09T08:30:49.232Z,7.20
2022-10-09T08:33:25.013Z,7.30
2022-10-09T08:36:09.208Z,7.60
2022-10-09T08:38:47.949Z,6.20
2022-10-09T08:41:39.100Z,6.80
2022-10-09T08:44:19.053Z,6.50
2022-10-09T08:47:06.476Z,6.80
2022-10-09T08:49:54.891Z,7.10
2022-10-09T08:52:40.756Z,10.10
2022-10-09T08:55:24.563Z,5.70
2022-10-09T08:58:04.490Z,7.10
2022-10-09T09:00:45.952Z,4.50
2022-10-09T09:04:00.610Z,5.80
2022-10-09T09:06:46.155Z,4.60
2022-10-09T09:09:31.862Z,4.60
2022-10-09T09:12:15.402Z,6.00
2022-10-09T09:15:09.238Z,5.20
2022-10-09T09:17:55.547Z,5.50
2022-10-09T09:20:40.159Z,7.10
2022-10-09T09:23:18.624Z,5.70
2022-10-09T09:25:53.610Z,7.00
2022-10-09T09:28:32.565Z,5.90
2022-10-09T09:31:17.321Z,4.70
2022-10-09T09:34:05.608Z,5.70
2022-10-09T09:36:50.520Z,6.30
2022-10-09T09:42:24.931Z,4.30
2022-10-09T09:45:07.704Z,6.60
2022-10-09T09:47:51.343Z,5.00
2022-10-09T09:50:52.964Z,6.10
2022-10-09T09:53:34.207Z,5.10
2022-10-09T09:56:09.903Z,4.60
2022-10-09T09:58:48.271Z,4.70
2022-10-09T10:01:29.080Z,5.50
2022-10-09T10:04:05.919Z,5.30
2022-10-09T10:06:47.087Z,4.20
2022-10-09T10:09:22.537Z,3.20
2022-10-09T10:12:01.561Z,4.30
2022-10-09T10:14:37.181Z,5.10
2022-10-09T10:17:26.465Z,3.10
2022-10-09T10:20:00.316Z,5.80
2022-10-09T10:22:34.652Z,5.90
2022-10-09T10:25:16.960Z,5.10
2022-10-09T10:27:54.791Z,4.60
2022-10-09T10:30:29.312Z,7.20
2022-10-09T10:33:15.523Z,4.80
2022-10-09T10:35:55.118Z,5.00
2022-10-09T10:38:37.199Z,5.80
2022-10-09T10:41:23.550Z,5.80
2022-10-09T10:44:04.943Z,6.40
2022-10-09T10:46:49.766Z,5.80
2022-10-09T10:49:26.354Z,5.80
2022-10-09T10:52:21.898Z,5.40
2022-10-09T10:55:09.515Z,5.00
2022-10-09T10:57:51.661Z,6.40
2022-10-09T11:00:27.556Z,5.50
2022-10-09T11:03:35.297Z,3.90
2022-10-09T11:06:20.941Z,4.10
2022-10-09T11:09:14.295Z,5.10
2022-10-09T11:11:57.000Z,6.50
2022-10-09T11:14:47.947Z,3.50
2022-10-09T11:17:35.108Z,4.30
2022-10-09T11:20:32.127Z,4.50
2022-10-09T11:23:21.254Z,5.50
2022-10-09T11:26:07.348Z,4.50
2022-10-09T11:28:51.774Z,3.30
2022-10-09T11:31:35.230Z,3.80
2022-10-09T11:34:18.465Z,5.80
2022-10-09T11:36:52.608Z,6.40
2022-10-09T11:39:31.174Z,5.00
2022-10-09T11:42:06.847Z,5.20
2022-10-09T11:44:55.106Z,4.00
2022-10-09T11:47:40.551Z,4.90
2022-10-09T11:50:37.247Z,8.00
2022-10-09T11:53:16.210Z,4.30
2022-10-09T11:55:50.342Z,5.00
2022-10-09T11:58:28.342Z,4.90
2022-10-09T12:01:23.245Z,3.30
2022-10-09T12:04:08.532Z,5.20
2022-10-09T12:06:54.815Z,2.50
2022-10-09T12:09:33.502Z,4.60
2022-10-09T12:12:21.420Z,3.20
2022-10-09T12:14:56.513Z,4.80
2022-10-09T12:17:50.153Z,4.60
2022-10-09T12:20:28.155Z,3.70
2022-10-09T12:25:59.238Z,3.10
2022-10-09T12:28:39.271Z,4.10
2022-10-09T12:31:25.186Z,4.60
2022-10-09T12:34:04.695Z,2.80
2022-10-09T12:36:39.171Z,8.10
2022-10-09T12:39:23.684Z,3.70
2022-10-09T12:42:00.933Z,2.80
2022-10-09T12:44:40.182Z,2.80
2022-10-09T12:47:23.052Z,2.60
2022-10-09T12:50:23.345Z,3.80
2022-10-09T12:53:02.038Z,4.00
2022-10-09T12:55:45.657Z,3.80
2022-10-09T12:58:26.918Z,3.70
2022-10-09T13:01:04.895Z,2.90
2022-10-09T13:03:41.912Z,3.00
2022-10-09T13:06:22.001Z,4.50
2022-10-09T13:09:02.061Z,4.00
2022-10-09T13:11:42.529Z,3.60
2022-10-09T13:14:36.151Z,2.40
2022-10-09T13:17:26.877Z,3.90
2022-10-09T13:20:04.123Z,2.20
2022-10-09T13:22:38.141Z,2.80
2022-10-09T13:25:13.583Z,4.40
2022-10-09T13:27:48.223Z,3.30
2022-10-09T13:30:23.070Z,3.30
2022-10-09T13:32:57.143Z,3.80
2022-10-09T13:35:31.360Z,3.80
2022-10-09T13:38:05.923Z,3.10
2022-10-09T13:40:40.572Z,2.40
2022-10-09T13:43:22.776Z,3.00
2022-10-09T13:45:56.892Z,3.80
2022-10-09T13:48:31.402Z,3.00
2022-10-09T13:51:05.722Z,2.50
2022-10-09T13:53:40.327Z,4.90
2022-10-09T13:56:14.336Z,4.60
2022-10-09T13:58:48.427Z,3.80
2022-10-09T14:01:23.174Z,3.20
2022-10-09T14:03:57.641Z,4.30
2022-10-09T14:06:37.266Z,8.20
2022-10-09T14:09:11.643Z,3.80
2022-10-09T14:11:45.684Z,4.40
2022-10-09T14:14:19.369Z,4.90
2022-10-09T14:16:53.616Z,3.80
2022-10-09T14:19:28.204Z,3.10
2022-10-09T14:22:02.883Z,4.30
2022-10-09T14:24:36.940Z,3.30
2022-10-09T14:27:10.962Z,3.60
2022-10-09T14:29:44.942Z,5.40
2022-10-09T14:32:18.954Z,3.80
2022-10-09T14:34:53.176Z,4.10
2022-10-09T14:37:41.094Z,3.60
2022-10-09T14:40:16.790Z,3.90
2022-10-09T14:42:50.765Z,3.40
2022-10-09T14:45:25.158Z,2.30
2022-10-09T14:47:59.754Z,5.20
2022-10-09T14:50:35.776Z,4.60
2022-10-09T14:53:09.614Z,3.20
2022-10-09T14:55:43.590Z,3.20
2022-10-09T14:58:17.649Z,5.70
2022-10-09T15:00:51.722Z,3.50
2022-10-09T15:03:25.665Z,3.90
2022-10-09T15:06:05.629Z,2.80
2022-10-09T15:08:42.658Z,3.80
2022-10-09T15:11:17.112Z,4.10
2022-10-09T15:13:50.987Z,4.70
2022-10-09T15:16:26.631Z,2.80
2022-10-09T15:19:00.732Z,4.80
2022-10-09T15:21:37.185Z,7.00
2022-10-09T15:24:12.875Z,4.00
2022-10-09T15:26:46.731Z,4.30
2022-10-09T15:29:20.500Z,4.20
2022-10-09T15:31:54.725Z,4.80
2022-10-09T15:34:29.321Z,2.90
2022-10-09T15:37:03.254Z,3.40
2022-10-09T15:39:38.841Z,2.80
2022-10-09T15:42:13.316Z,5.30
2022-10-09T15:44:47.360Z,2.50
2022-10-09T15:47:39.221Z,3.80
2022-10-09T15:50:15.978Z,5.00
2022-10-09T15:52:50.050Z,6.40
2022-10-09T15:55:24.397Z,6.50
2022-10-09T15:57:58.651Z,7.10
2022-10-09T16:00:35.547Z,8.70
2022-10-09T16:03:10.921Z,7.70
2022-10-09T16:05:51.109Z,10.60
2022-10-09T16:08:25.098Z,12.00
2022-10-09T16:10:59.639Z,9.50
2022-10-09T16:13:33.589Z,8.70
2022-10-09T16:16:10.304Z,7.40
2022-10-09T16:18:44.037Z,7.30
2022-10-09T16:21:20.354Z,7.60
2022-10-09T16:23:58.886Z,7.30
2022-10-09T16:26:34.286Z,8.10
2022-10-09T16:29:08.247Z,6.10
2022-10-09T16:31:42.160Z,4.50
2022-10-09T16:34:16.540Z,4.10
2022-10-09T16:36:50.392Z,4.00
2022-10-09T16:39:24.488Z,3.50
2022-10-09T16:42:01.867Z,9.90
2022-10-09T16:44:35.851Z,3.70
2022-10-09T16:47:10.018Z,5.90
2022-10-09T16:49:43.563Z,4.20
2022-10-09T16:52:17.275Z,4.20
2022-10-09T16:54:52.012Z,6.20
2022-10-09T16:57:25.789Z,7.70
2022-10-09T16:59:59.713Z,7.60
2022-10-09T17:02:33.426Z,5.60
2022-10-09T17:05:09.372Z,4.40
2022-10-09T17:07:43.587Z,4.60
2022-10-09T17:10:17.869Z,5.50
2022-10-09T17:12:51.710Z,8.20
2022-10-09T17:15:25.633Z,8.10
2022-10-09T17:18:01.061Z,7.20
2022-10-09T17:20:36.004Z,4.70
2022-10-09T17:23:10.422Z,7.70
2022-10-09T17:25:45.536Z,4.70
2022-10-09T17:28:20.135Z,3.80
2022-10-09T17:30:54.728Z,7.30
2022-10-09T17:33:29.034Z,5.90
2022-10-09T17:36:05.486Z,7.80
2022-10-09T17:38:40.206Z,6.40
2022-10-09T17:41:16.523Z,5.00
2022-10-09T17:43:50.777Z,5.70
2022-10-09T17:46:26.507Z,3.00
2022-10-09T17:49:02.232Z,3.70
2022-10-09T17:51:41.347Z,2.70
2022-10-09T17:54:18.175Z,5.50
2022-10-09T17:56:52.300Z,5.40
2022-10-09T17:59:26.441Z,8.20
2022-10-09T18:02:01.297Z,4.30
2022-10-09T18:04:36.588Z,3.90
2022-10-09T18:07:10.988Z,5.80
2022-10-09T18:09:45.441Z,5.30
2022-10-09T18:12:19.302Z,6.10
2022-10-09T18:14:53.920Z,5.40
2022-10-09T18:17:30.404Z,8.10
2022-10-09T18:20:04.480Z,7.90
2022-10-09T18:22:40.252Z,6.60
2022-10-09T18:25:15.644Z,9.30
2022-10-09T18:27:50.373Z,10.60
2022-10-09T18:30:25.062Z,10.40
2022-10-09T18:33:01.604Z,9.30
2022-10-09T18:35:37.873Z,7.60
2022-10-09T18:38:13.240Z,9.20
2022-10-09T18:40:48.142Z,10.60
2022-10-09T18:43:22.475Z,8.20
2022-10-09T18:45:58.068Z,7.30
2022-10-09T18:48:36.573Z,8.90
2022-10-09T18:51:18.256Z,11.20
2022-10-09T18:53:57.827Z,9.70
2022-10-09T18:56:35.986Z,9.40
2022-10-09T18:59:14.952Z,11.00
2022-10-09T19:01:48.984Z,8.80
2022-10-09T19:04:23.405Z,11.70
2022-10-09T19:06:58.186Z,13.30
2022-10-09T19:09:32.358Z,10.30
2022-10-09T19:12:06.926Z,8.20
2022-10-09T19:14:41.314Z,9.80
2022-10-09T19:17:16.221Z,13.20
2022-10-09T19:19:52.944Z,13.50
2022-10-09T19:22:27.039Z,13.10
2022-10-09T19:25:01.483Z,15.70
2022-10-09T19:27:36.597Z,13.00
2022-10-09T19:30:15.210Z,13.40
2022-10-09T19:32:49.707Z,11.60
2022-10-09T19:35:23.962Z,14.10
2022-10-09T19:37:59.786Z,13.60
2022-10-09T19:40:35.814Z,16.60
2022-10-09T19:43:10.976Z,13.40
2022-10-09T19:45:49.149Z,17.70
2022-10-09T19:48:24.417Z,12.40
2022-10-09T19:50:59.179Z,12.30
2022-10-09T19:53:35.061Z,13.00
2022-10-09T19:56:15.008Z,14.80
2022-10-09T19:58:50.707Z,14.10
2022-10-09T20:01:27.664Z,14.50
2022-10-09T20:04:07.843Z,18.70
2022-10-09T20:06:43.944Z,14.80
2022-10-09T20:09:20.878Z,15.40
2022-10-09T20:11:54.925Z,14.60
2022-10-09T20:14:30.078Z,13.80
2022-10-09T20:17:05.476Z,13.10
2022-10-09T20:19:45.412Z,15.40
2022-10-09T20:22:19.786Z,15.80
2022-10-09T20:24:58.070Z,15.90
2022-10-09T20:27:34.881Z,15.20
2022-10-09T20:30:11.542Z,14.80
2022-10-09T20:32:45.574Z,16.20
2022-10-09T20:35:20.570Z,15.90
2022-10-09T20:37:54.727Z,14.00
2022-10-09T20:40:29.310Z,16.00
2022-10-09T20:43:03.845Z,20.50
2022-10-09T20:45:44.393Z,19.40
2022-10-09T20:48:19.110Z,16.90
2022-10-09T20:50:53.303Z,18.60
2022-10-09T20:53:27.364Z,17.80
2022-10-09T20:56:07.860Z,20.90
2022-10-09T20:58:41.965Z,16.70
2022-10-09T21:01:17.332Z,21.60
2022-10-09T21:03:51.870Z,16.30
2022-10-09T21:06:26.348Z,17.30
2022-10-09T21:09:00.417Z,17.80
2022-10-09T21:11:35.133Z,17.90
2022-10-09T21:14:08.998Z,19.70
2022-10-09T21:16:43.334Z,18.30
2022-10-09T21:19:17.487Z,14.70
2022-10-09T21:21:51.626Z,17.30
2022-10-09T21:24:25.849Z,21.00
2022-10-09T21:26:59.889Z,17.80
2022-10-09T21:29:34.210Z,15.80
2022-10-09T21:32:09.005Z,23.00
2022-10-09T21:34:43.203Z,15.20
2022-10-09T21:37:21.483Z,15.40
2022-10-09T21:39:56.684Z,18.30
2022-10-09T21:42:31.061Z,21.50
2022-10-09T21:45:05.220Z,18.20
2022-10-09T21:47:39.101Z,17.20
2022-10-09T21:50:14.270Z,15.50
2022-10-09T21:52:50.265Z,15.30
2022-10-09T21:55:24.123Z,16.90
2022-10-09T21:57:58.914Z,17.70
2022-10-09T22:00:32.923Z,16.60
2022-10-09T22:03:06.954Z,18.20
2022-10-09T22:05:43.398Z,15.30
2022-10-09T22:08:17.208Z,13.50
2022-10-09T22:10:51.431Z,17.10
2022-10-09T22:13:25.229Z,20.40
2022-10-09T22:15:59.122Z,16.70
2022-10-09T22:18:33.024Z,13.20
2022-10-09T22:21:12.005Z,15.10
2022-10-09T22:23:46.448Z,18.20
2022-10-09T22:26:23.400Z,18.80
2022-10-09T22:28:57.094Z,15.50
2022-10-09T22:31:31.785Z,16.70
2022-10-09T22:34:06.341Z,15.90
2022-10-09T22:36:40.345Z,17.20
2022-10-09T22:39:15.576Z,15.30
2022-10-09T22:41:49.472Z,16.60
2022-10-09T22:44:23.547Z,15.00
2022-10-09T22:46:59.021Z,14.40
2022-10-09T22:49:33.133Z,13.80
2022-10-09T22:52:06.782Z,16.20
2022-10-09T22:54:40.355Z,18.10
2022-10-09T22:57:14.014Z,13.70
2022-10-09T22:59:47.897Z,14.60
2022-10-09T23:02:21.635Z,15.30
2022-10-09T23:04:55.396Z,14.10
2022-10-09T23:07:29.124Z,12.40
2022-10-09T23:10:03.195Z,14.70
2022-10-09T23:12:36.767Z,15.90
2022-10-09T23:15:12.065Z,13.00
2022-10-09T23:17:46.482Z,11.70
2022-10-09T23:20:20.461Z,10.80
2022-10-09T23:22:55.534Z,13.30
2022-10-09T23:25:29.515Z,15.20
2022-10-09T23:28:03.341Z,13.40
2022-10-09T23:30:36.993Z,10.90
2022-10-09T23:33:11.147Z,10.60
2022-10-09T23:35:48.305Z,11.50
2022-10-09T23:38:21.941Z,13.90
2022-10-09T23:41:02.455Z,10.60
2022-10-09T23:43:39.499Z,13.90
2022-10-09T23:46:17.253Z,10.40
2022-10-09T23:48:53.424Z,9.00
2022-10-09T23:51:30.717Z,11.70
2022-10-09T23:54:04.759Z,10.70
2022-10-09T23:56:39.430Z,10.00
2022-10-09T23:59:14.228Z,13.30
